地図

経路データ

SID SEASON NUMBER BASIN SUBBASIN NAME ISO_TIME NATURE LAT LON WMO_WIND WMO_PRES WMO_AGENCY TRACK_TYPE DIST2LAND LANDFALL IFLAG USA_AGENCY USA_ATCF_ID USA_LAT USA_LON USA_RECORD USA_STATUS USA_WIND USA_PRES USA_SSHS USA_R34_NE USA_R34_SE USA_R34_SW USA_R34_NW USA_R50_NE USA_R50_SE USA_R50_SW USA_R50_NW USA_R64_NE USA_R64_SE USA_R64_SW USA_R64_NW USA_POCI USA_ROCI USA_RMW USA_EYE TOKYO_LAT TOKYO_LON TOKYO_GRADE TOKYO_WIND TOKYO_PRES TOKYO_R50_DIR TOKYO_R50_LONG TOKYO_R50_SHORT TOKYO_R30_DIR TOKYO_R30_LONG TOKYO_R30_SHORT TOKYO_LAND CMA_LAT CMA_LON CMA_CAT CMA_WIND CMA_PRES HKO_LAT HKO_LON HKO_CAT HKO_WIND HKO_PRES NEWDELHI_LAT NEWDELHI_LON NEWDELHI_GRADE NEWDELHI_WIND NEWDELHI_PRES NEWDELHI_CI NEWDELHI_DP NEWDELHI_POCI REUNION_LAT REUNION_LON REUNION_TYPE REUNION_WIND REUNION_PRES REUNION_TNUM REUNION_CI REUNION_RMW REUNION_R34_NE REUNION_R34_SE REUNION_R34_SW REUNION_R34_NW REUNION_R50_NE REUNION_R50_SE REUNION_R50_SW REUNION_R50_NW REUNION_R64_NE REUNION_R64_SE REUNION_R64_SW REUNION_R64_NW BOM_LAT BOM_LON BOM_TYPE BOM_WIND BOM_PRES BOM_TNUM BOM_CI BOM_RMW BOM_R34_NE BOM_R34_SE BOM_R34_SW BOM_R34_NW BOM_R50_NE BOM_R50_SE BOM_R50_SW BOM_R50_NW BOM_R64_NE BOM_R64_SE BOM_R64_SW BOM_R64_NW BOM_ROCI BOM_POCI BOM_EYE BOM_POS_METHOD BOM_PRES_METHOD NADI_LAT NADI_LON NADI_CAT NADI_WIND NADI_PRES WELLINGTON_LAT WELLINGTON_LON WELLINGTON_WIND WELLINGTON_PRES DS824_LAT DS824_LON DS824_STAGE DS824_WIND DS824_PRES TD9636_LAT TD9636_LON TD9636_STAGE TD9636_WIND TD9636_PRES TD9635_LAT TD9635_LON TD9635_WIND TD9635_PRES TD9635_ROCI NEUMANN_LAT NEUMANN_LON NEUMANN_CLASS NEUMANN_WIND NEUMANN_PRES MLC_LAT MLC_LON MLC_CLASS MLC_WIND MLC_PRES USA_GUST BOM_GUST BOM_GUST_PER REUNION_GUST REUNION_GUST_PER USA_SEAHGT USA_SEARAD_NE USA_SEARAD_SE USA_SEARAD_SW USA_SEARAD_NW STORM_SPEED STORM_DIR
1936210N14132 1936 31 WP MM NOT_NAMED 1936-07-27 21:00:00 NR 14.0000 132.000 main 732 680 __________O___ -1 14.0000 132.000 7 15 301
1936210N14132 1936 31 WP MM NOT_NAMED 1936-07-28 00:00:00 NR 14.3729 131.359 main 684 628 __________P___ -1 14.3729 131.359 7 15 300
1936210N14132 1936 31 WP MM NOT_NAMED 1936-07-28 03:00:00 NR 14.7562 130.654 main 633 575 __________P___ -1 14.7562 130.654 7 17 298
1936210N14132 1936 31 WP MM NOT_NAMED 1936-07-28 06:00:00 NR 15.1617 129.822 main 573 516 __________P___ -1 15.1617 129.822 7 20 295
1936210N14132 1936 31 WP MM NOT_NAMED 1936-07-28 09:00:00 NR 15.6000 128.800 main 510 416 __________O___ -1 15.6000 128.800 7 24 293
1936210N14132 1936 31 WP MM NOT_NAMED 1936-07-28 12:00:00 NR 16.0715 127.556 main 422 352 __________P___ -1 16.0715 127.556 7 27 291
1936210N14132 1936 31 WP MM NOT_NAMED 1936-07-28 15:00:00 NR 16.5400 126.195 main 346 255 __________P___ -1 16.5400 126.195 7 27 289
1936210N14132 1936 31 WP MM NOT_NAMED 1936-07-28 18:00:00 NR 16.9625 124.862 main 255 142 __________P___ -1 16.9625 124.862 7 25 288
1936210N14132 1936 31 WP MM NOT_NAMED 1936-07-28 21:00:00 NR 17.3000 123.700 main 131 57 __________O___ -1 17.3000 123.700 7 20 286
1936210N14132 1936 31 WP MM NOT_NAMED 1936-07-29 00:00:00 NR 17.5148 122.883 main 57 21 __________P___ -1 17.5148 122.883 7 14 284
1936210N14132 1936 31 WP MM NOT_NAMED 1936-07-29 03:00:00 NR 17.6496 122.257 main 21 0 __________P___ -1 17.6496 122.257 7 11 282
1936210N14132 1936 31 WP MM NOT_NAMED 1936-07-29 06:00:00 NR 17.7349 121.753 main 0 0 __________P___ -1 17.7349 121.753 7 9 279
1936210N14132 1936 31 WP MM NOT_NAMED 1936-07-29 09:00:00 NR 17.8000 121.300 main 0 0 __________O___ -1 17.8000 121.300 7 10 280
1936210N14132 1936 31 WP MM NOT_NAMED 1936-07-29 12:00:00 NR 17.8970 120.765 main 0 0 __________P___ -1 17.8970 120.765 7 10 280
1936210N14132 1936 31 WP MM NOT_NAMED 1936-07-29 15:00:00 NR 17.9795 120.267 main 21 21 __________P___ -1 17.9795 120.267 7 9 279
1936210N14132 1936 31 WP MM NOT_NAMED 1936-07-29 18:00:00 NR 18.0472 119.812 main 69 69 __________P___ -1 18.0472 119.812 7 8 278
1936210N14132 1936 31 WP MM NOT_NAMED 1936-07-29 21:00:00 NR 18.1000 119.400 main 110 110 __________O___ -1 18.1000 119.400 7 7 275
1936210N14132 1936 31 WP MM NOT_NAMED 1936-07-30 00:00:00 NR 18.1144 119.035 main 148 148 __________P___ -1 18.1144 119.035 7 7 272
1936210N14132 1936 31 WP MM NOT_NAMED 1936-07-30 03:00:00 NR 18.1192 118.712 main 178 178 __________P___ -1 18.1192 118.712 7 6 272
1936210N14132 1936 31 WP MM NOT_NAMED 1936-07-30 06:00:00 NR 18.1395 118.407 main 208 208 __________P___ -1 18.1395 118.407 7 6 278
1936210N14132 1936 31 WP MM NOT_NAMED 1936-07-30 09:00:00 NR 18.2000 118.100 main 242 242 __________O___ -1 18.2000 118.100 7 7 287
1936210N14132 1936 31 WP MM NOT_NAMED 1936-07-30 12:00:00 NR 18.3321 117.729 main 286 286 __________P___ -1 18.3321 117.729 7 8 293
1936210N14132 1936 31 WP MM NOT_NAMED 1936-07-30 15:00:00 NR 18.5053 117.356 main 322 322 __________P___ -1 18.5053 117.356 7 8 298
1936210N14132 1936 31 WP MM NOT_NAMED 1936-07-30 18:00:00 NR 18.7009 117.004 main 369 369 __________P___ -1 18.7009 117.004 7 7 302
1936210N14132 1936 31 WP MM NOT_NAMED 1936-07-30 21:00:00 NR 18.9000 116.700 main 407 407 __________O___ -1 18.9000 116.700 7 6 304
1936210N14132 1936 31 WP MM NOT_NAMED 1936-07-31 00:00:00 NR 19.0463 116.454 main 420 394 __________P___ -1 19.0463 116.454 7 5 306
1936210N14132 1936 31 WP MM NOT_NAMED 1936-07-31 03:00:00 NR 19.1972 116.260 main 394 368 __________P___ -1 19.1972 116.260 7 5 315
1936210N14132 1936 31 WP MM NOT_NAMED 1936-07-31 06:00:00 NR 19.3745 116.110 main 368 343 __________P___ -1 19.3745 116.110 7 5 329
1936210N14132 1936 31 WP MM NOT_NAMED 1936-07-31 09:00:00 NR 19.6000 116.000 main 343 308 __________O___ -1 19.6000 116.000 7 6 339
1936210N14132 1936 31 WP MM NOT_NAMED 1936-07-31 12:00:00 NR 19.8874 115.898 main 308 273 __________P___ -1 19.8874 115.898 7 6 346
1936210N14132 1936 31 WP MM NOT_NAMED 1936-07-31 15:00:00 NR 20.2249 115.833 main 273 231 __________P___ -1 20.2249 115.833 7 7 353
1936210N14132 1936 31 WP MM NOT_NAMED 1936-07-31 18:00:00 NR 20.6000 115.801 main 231 190 __________P___ -1 20.6000 115.801 7 8 357
1936210N14132 1936 31 WP MM NOT_NAMED 1936-07-31 21:00:00 NR 21.0000 115.800 main 190 145 __________O___ -1 21.0000 115.800 7 8 1
1936210N14132 1936 31 WP MM NOT_NAMED 1936-08-01 00:00:00 NR 21.4116 115.817 main 145 101 __________P___ -1 21.4116 115.817 7 8 3
1936210N14132 1936 31 WP MM NOT_NAMED 1936-08-01 03:00:00 NR 21.8425 115.862 main 101 45 __________P___ -1 21.8425 115.862 7 9 7
1936210N14132 1936 31 WP MM NOT_NAMED 1936-08-01 06:00:00 NR 22.2772 115.926 main 45 15 __________P___ -1 22.2772 115.926 7 9 8
1936210N14132 1936 31 WP MM NOT_NAMED 1936-08-01 09:00:00 NR 22.7000 116.000 main 15 0 __________O___ -1 22.7000 116.000 7 8 9
1936210N14132 1936 31 WP MM NOT_NAMED 1936-08-01 12:00:00 NR 23.0568 116.052 main 0 0 __________P___ -1 23.0568 116.052 7 7 8
1936210N14132 1936 31 WP MM NOT_NAMED 1936-08-01 15:00:00 NR 23.4049 116.114 main 0 0 __________P___ -1 23.4049 116.114 7 7 10
1936210N14132 1936 31 WP MM NOT_NAMED 1936-08-01 18:00:00 NR 23.7755 116.193 main 0 0 __________P___ -1 23.7755 116.193 7 8 12
1936210N14132 1936 31 WP MM NOT_NAMED 1936-08-01 21:00:00 NR 24.2000 116.300 main 0 0 __________O___ -1 24.2000 116.300 7 10 12
1936210N14132 1936 31 WP MM NOT_NAMED 1936-08-02 00:00:00 NR 24.7498 116.422 main 0 0 __________P___ -1 24.7498 116.422 7 12 12
1936210N14132 1936 31 WP MM NOT_NAMED 1936-08-02 03:00:00 NR 25.3497 116.575 main 0 0 __________P___ -1 25.3497 116.575 7 12 15
1936210N14132 1936 31 WP MM NOT_NAMED 1936-08-02 06:00:00 NR 25.9497 116.766 main 0 0 __________P___ -1 25.9497 116.766 7 12 18
1936210N14132 1936 31 WP MM NOT_NAMED 1936-08-02 09:00:00 NR 26.5000 117.000 main 0 0 __________O___ -1 26.5000 117.000 7 10 25
1936210N14132 1936 31 WP MM NOT_NAMED 1936-08-02 12:00:00 NR 26.8995 117.252 main 0 0 __________P___ -1 26.8995 117.252 7 9 33
1936210N14132 1936 31 WP MM NOT_NAMED 1936-08-02 15:00:00 NR 27.2492 117.549 main 0 0 __________P___ -1 27.2492 117.549 7 9 39
1936210N14132 1936 31 WP MM NOT_NAMED 1936-08-02 18:00:00 NR 27.5993 117.896 main 0 0 __________P___ -1 27.5993 117.896 7 10 42
1936210N14132 1936 31 WP MM NOT_NAMED 1936-08-02 21:00:00 NR 28.0000 118.300 main 0 0 __________O___ -1 28.0000 118.300 7 11 38
1936210N14132 1936 31 WP MM NOT_NAMED 1936-08-03 00:00:00 NR 28.4489 118.659 main 0 0 __________P___ -1 28.4489 118.659 7 12 36
1936210N14132 1936 31 WP MM NOT_NAMED 1936-08-03 03:00:00 NR 28.9637 119.089 main 0 0 __________P___ -1 28.9637 119.089 7 14 38
1936210N14132 1936 31 WP MM NOT_NAMED 1936-08-03 06:00:00 NR 29.5718 119.648 main 0 0 __________P___ -1 29.5718 119.648 7 18 40
1936210N14132 1936 31 WP MM NOT_NAMED 1936-08-03 09:00:00 NR 30.3000 120.400 main 0 0 __________O___ -1 30.3000 120.400 7 24 46
1936210N14132 1936 31 WP MM NOT_NAMED 1936-08-03 12:00:00 NR 31.2221 121.612 main 0 0 __________P___ -1 31.2221 121.612 7 30 49
1936210N14132 1936 31 WP MM NOT_NAMED 1936-08-03 15:00:00 NR 32.2398 123.007 main 117 117 __________P___ -1 32.2398 123.007 7 31 49
1936210N14132 1936 31 WP MM NOT_NAMED 1936-08-03 18:00:00 NR 33.2602 124.352 main 166 93 __________P___ -1 33.2602 124.352 7 28 46
1936210N14132 1936 31 WP MM NOT_NAMED 1936-08-03 21:00:00 NR 34.2000 125.400 main 93 29 __________O___ -1 34.2000 125.400 7 22 37
1936210N14132 1936 31 WP MM NOT_NAMED 1936-08-04 00:00:00 NR 35.0041 125.955 main 21 18 __________P___ -1 35.0041 125.955 7 16 20
1936210N14132 1936 31 WP MM NOT_NAMED 1936-08-04 03:00:00 NR 35.6968 126.082 main 37 34 __________P___ -1 35.6968 126.082 7 13 358
1936210N14132 1936 31 WP MM NOT_NAMED 1936-08-04 06:00:00 NR 36.3167 125.917 main 37 28 __________P___ -1 36.3167 125.917 7 13 342
1936210N14132 1936 31 WP MM NOT_NAMED 1936-08-04 09:00:00 NR 36.9000 125.600 main 49 __________O___ -1 36.9000 125.600 7 13 337

デジタル台風データ・検索

IBTrACS Databaseについて

本データベースは、米国NOAAが公開する1842年以降の世界の熱帯低気圧のベストトラックデータアーカイブInternational Best Track Archive for Climate Stewardship (IBTrACS)を、ウェブで閲覧しやすい形式に変換したものです。

最終更新日:2021-10-08